Time;durP1;ratioP1;P1;durP2;ratioP2;P2;SDS_P1;SDS_P2;PMS_P1;PMS_P2;Temp;Humidity;BMP_temperature;BMP_pressure;BME280_temperature;BME280_humidity;BME280_pressure;Samples;Min_cycle;Max_cycle;Signal;HPM_P1;HPM_P2
2022/06/25 00:01:18;;;;;;;;;;;;;;;-144.99;100.00;52285.03;5111017;28;19926;-72
2022/06/25 00:03:46;;;;;;;;;;;;;;;-144.99;100.00;52234.09;5110693;28;20040;-73
2022/06/25 00:06:12;;;;;;;;;;;;;;;-144.99;100.00;52278.91;5107392;28;20290;-73
2022/06/25 00:08:39;;;;;;;;;;;;;;;-144.99;100.00;52244.28;5107125;28;19940;-73
2022/06/25 00:11:06;;;;;;;;;;;;;;;-144.99;100.00;52297.25;5097558;28;20379;-75
2022/06/25 00:13:32;;;;;;;;;;;;;;;-144.99;100.00;52256.50;5110879;28;19952;-74
2022/06/25 00:15:58;;;;;;;;;;;;;;;-144.99;100.00;52276.88;5109869;28;19926;-76
2022/06/25 00:18:25;;;;;;;;;;;;;;;-144.99;100.00;52252.44;5114559;28;19920;-76
2022/06/25 00:20:53;;;;;;;;;;;;;;;-144.99;100.00;52252.44;5109415;28;20709;-76
2022/06/25 00:23:20;;;;;;;;;;;;;;;-144.99;100.00;52276.88;5100946;28;20405;-76
2022/06/25 00:25:46;;;;;;;;;;;;;;;-144.99;100.00;52293.19;5109342;28;19993;-76
2022/06/25 00:28:13;;;;;;;;;;;;;;;-144.99;100.00;52252.44;5104014;28;20275;-77
2022/06/25 00:30:39;;;;;;;;;;;;;;;-144.99;100.00;52276.88;5098962;28;19955;-77
2022/06/25 00:33:06;;;;;;;;;;;;;;;-144.99;100.00;52264.66;5106292;28;19920;-76
2022/06/25 00:35:35;;;;;;;;;;;;;;;-144.99;100.00;52297.25;5104818;28;20383;-77
2022/06/25 00:38:03;;;;;;;;;;;;;;;-144.99;100.00;52244.28;5107632;28;20385;-76
2022/06/25 00:40:30;;;;;;;;;;;;;;;-144.99;100.00;52268.72;5102680;28;19920;-76
2022/06/25 00:42:56;;;;;;;;;;;;;;;-144.99;100.00;52258.53;5107634;28;19943;-77
2022/06/25 00:45:23;;;;;;;;;;;;;;;-144.99;100.00;52276.88;5099420;28;19960;-74
2022/06/25 00:47:49;;;;;;;;;;;;;;;-144.99;100.00;52305.41;5111300;28;19927;-75
2022/06/25 00:50:16;;;;;;;;;;;;;;;-144.99;100.00;52293.19;5108273;28;19919;-75
2022/06/25 00:52:43;;;;;;;;;;;;;;;-144.99;100.00;52305.41;5107495;28;19931;-75
2022/06/25 00:55:12;;;;;;;;;;;;;;;-144.99;100.00;52285.03;5108539;28;19920;-75
2022/06/25 00:57:39;;;;;;;;;;;;;;;-144.99;100.00;52280.97;5114195;28;20228;-73
2022/06/25 01:00:07;;;;;;;;;;;;;;;-144.99;100.00;52285.03;5111405;28;19920;-75
2022/06/25 01:02:34;;;;;;;;;;;;;;;-144.99;100.00;52248.34;5105853;28;19919;-75
2022/06/25 01:05:01;;;;;;;;;;;;;;;-144.99;100.00;52287.06;5109599;28;19920;-74
2022/06/25 01:07:27;;;;;;;;;;;;;;;-144.99;100.00;52291.16;5105395;28;19927;-75
2022/06/25 01:09:54;;;;;;;;;;;;;;;-144.99;100.00;52297.25;5103691;28;19916;-74
2022/06/25 01:12:21;;;;;;;;;;;;;;;-144.99;100.00;52258.53;5103793;28;19924;-74
2022/06/25 01:15:00;;;;;;;;;;;;;;;-144.99;100.00;52244.28;5108927;27;19964;-74
2022/06/25 01:17:27;;;;;;;;;;;;;;;-144.99;100.00;52305.41;5104985;28;19927;-75
2022/06/25 01:19:54;;;;;;;;;;;;;;;-144.99;100.00;52295.22;5108547;28;19935;-72
2022/06/25 01:22:22;;;;;;;;;;;;;;;-144.99;100.00;52236.13;5106369;28;19920;-73
2022/06/25 01:24:48;;;;;;;;;;;;;;;-144.99;100.00;52260.56;5104729;28;19967;-72
2022/06/25 01:27:16;;;;;;;;;;;;;;;-144.99;100.00;52266.69;5107440;28;20413;-72
2022/06/25 01:29:43;;;;;;;;;;;;;;;-144.99;100.00;52317.66;5102085;28;20386;-72
2022/06/25 01:32:11;;;;;;;;;;;;;;;-144.99;100.00;52268.72;5110525;28;19939;-73
2022/06/25 01:34:37;;;;;;;;;;;;;;;-144.99;100.00;52285.03;5109817;28;19924;-73
2022/06/25 01:37:04;;;;;;;;;;;;;;;-144.99;100.00;52285.03;5102515;28;19924;-73
2022/06/25 01:39:32;;;;;;;;;;;;;;;-144.99;100.00;52315.59;5099505;28;19928;-73
2022/06/25 01:41:58;;;;;;;;;;;;;;;-144.99;100.00;52268.72;5108494;28;19919;-74
2022/06/25 01:44:25;;;;;;;;;;;;;;;-144.99;100.00;52260.56;5099862;28;19920;-73
2022/06/25 01:46:51;;;;;;;;;;;;;;;-144.99;100.00;52285.03;5111297;28;19919;-74
2022/06/25 01:49:18;;;;;;;;;;;;;;;-144.99;100.00;52309.50;5107294;28;20008;-74
2022/06/25 01:51:44;;;;;;;;;;;;;;;-144.99;100.00;52262.63;5106334;28;20018;-74
2022/06/25 01:54:12;;;;;;;;;;;;;;;-144.99;100.00;52297.25;5104786;28;20004;-74
2022/06/25 01:56:40;;;;;;;;;;;;;;;-144.99;100.00;52285.03;5103992;28;20303;-74
2022/06/25 01:59:06;;;;;;;;;;;;;;;-144.99;100.00;52301.34;5102871;28;19952;-74
2022/06/25 02:01:33;;;;;;;;;;;;;;;-144.99;100.00;52268.72;5111467;28;20431;-74
2022/06/25 02:04:00;;;;;;;;;;;;;;;-144.99;100.00;52280.97;5108798;28;19942;-74
2022/06/25 02:06:26;;;;;;;;;;;;;;;-144.99;100.00;52276.88;5103205;28;19920;-74
2022/06/25 02:08:53;;;;;;;;;;;;;;;-144.99;100.00;52280.97;5109202;28;19964;-73
2022/06/25 02:11:19;;;;;;;;;;;;;;;-144.99;100.00;52301.34;5104585;28;19924;-73
2022/06/25 02:13:47;;;;;;;;;;;;;;;-144.99;100.00;52289.13;5099560;28;19938;-73
2022/06/25 02:16:15;;;;;;;;;;;;;;;-144.99;100.00;52309.50;5104948;28;19949;-73
2022/06/25 02:18:41;;;;;;;;;;;;;;;-144.99;100.00;52280.97;5100437;28;19923;-73
2022/06/25 02:21:07;;;;;;;;;;;;;;;-144.99;100.00;52289.13;5102257;28;20184;-73
2022/06/25 02:23:34;;;;;;;;;;;;;;;-144.99;100.00;52301.34;5105104;28;20462;-73
2022/06/25 02:26:00;;;;;;;;;;;;;;;-144.99;100.00;52311.53;5109267;28;19934;-73
2022/06/25 02:28:27;;;;;;;;;;;;;;;-144.99;100.00;52289.13;5104645;28;20371;-73
2022/06/25 02:30:55;;;;;;;;;;;;;;;-144.99;100.00;52280.97;5102912;28;20322;-74
2022/06/25 02:33:21;;;;;;;;;;;;;;;-144.99;100.00;52283.00;5101918;28;20001;-72
2022/06/25 02:35:48;;;;;;;;;;;;;;;-144.99;100.00;52287.06;5108971;28;19920;-72
2022/06/25 02:38:14;;;;;;;;;;;;;;;-144.99;100.00;52329.88;5101983;28;20382;-73
2022/06/25 02:40:41;;;;;;;;;;;;;;;-144.99;100.00;52285.03;5106540;28;19997;-74
2022/06/25 02:43:08;;;;;;;;;;;;;;;-144.99;100.00;52299.31;5108908;28;19924;-73
2022/06/25 02:45:34;;;;;;;;;;;;;;;-144.99;100.00;52266.69;5110438;28;19920;-73
2022/06/25 02:48:02;;;;;;;;;;;;;;;-144.99;100.00;52301.34;5106427;28;19973;-73
2022/06/25 02:50:29;;;;;;;;;;;;;;;-144.99;100.00;52301.34;5100347;28;19920;-73
2022/06/25 02:52:55;;;;;;;;;;;;;;;-144.99;100.00;52297.25;5110695;28;19928;-73
2022/06/25 02:58:54;;;;;;;;;;;;;;;-144.99;100.00;52313.56;5108831;28;19924;-73
2022/06/25 03:00:54;;;;;;;;;;;;;;;-144.99;100.00;52285.03;5102827;28;20102;-74
2022/06/25 03:03:22;;;;;;;;;;;;;;;-144.99;100.00;52348.22;5101137;28;19919;-74
2022/06/25 03:05:48;;;;;;;;;;;;;;;-144.99;100.00;52344.16;5105481;28;20394;-73
2022/06/25 03:08:15;;;;;;;;;;;;;;;-144.99;100.00;52321.72;5100921;28;19980;-73
2022/06/25 03:10:41;;;;;;;;;;;;;;;-144.99;100.00;52305.41;5097821;28;20182;-73
2022/06/25 03:13:08;;;;;;;;;;;;;;;-144.99;100.00;52317.66;5110048;28;19949;-74
2022/06/25 03:15:35;;;;;;;;;;;;;;;-144.99;100.00;52289.13;5107918;28;20405;-73
2022/06/25 03:18:01;;;;;;;;;;;;;;;-144.99;100.00;52321.72;5103223;28;19920;-73
2022/06/25 03:20:29;;;;;;;;;;;;;;;-144.99;100.00;52297.25;5103535;28;19931;-74
2022/06/25 03:22:56;;;;;;;;;;;;;;;-144.99;100.00;52331.91;5109785;28;19951;-74
2022/06/25 03:25:23;;;;;;;;;;;;;;;-144.99;100.00;52272.81;5110188;28;19919;-74
2022/06/25 03:27:49;;;;;;;;;;;;;;;-144.99;100.00;52297.25;5108736;28;19959;-74
2022/06/25 03:30:16;;;;;;;;;;;;;;;-144.99;100.00;52317.66;5102150;28;19919;-73
2022/06/25 03:32:43;;;;;;;;;;;;;;;-144.99;100.00;52283.00;5106425;28;19928;-74
2022/06/25 03:35:09;;;;;;;;;;;;;;;-144.99;100.00;52325.81;5106131;28;19980;-74
2022/06/25 03:37:37;;;;;;;;;;;;;;;-144.99;100.00;52305.41;5099015;28;19967;-74
2022/06/25 03:40:04;;;;;;;;;;;;;;;-144.99;100.00;52276.88;5107548;28;19924;-74
2022/06/25 03:42:30;;;;;;;;;;;;;;;-144.99;100.00;52256.50;5104031;28;19919;-72
2022/06/25 03:44:57;;;;;;;;;;;;;;;-144.99;100.00;52276.88;5103162;28;19920;-73
2022/06/25 03:47:23;;;;;;;;;;;;;;;-144.99;100.00;52272.81;5108370;28;20022;-73
2022/06/25 03:49:50;;;;;;;;;;;;;;;-144.99;100.00;52321.72;5106097;28;19924;-73
2022/06/25 03:52:16;;;;;;;;;;;;;;;-144.99;100.00;52309.50;5097584;28;19920;-73
2022/06/25 03:54:44;;;;;;;;;;;;;;;-144.99;100.00;52305.41;5109158;28;20044;-73
2022/06/25 03:57:11;;;;;;;;;;;;;;;-144.99;100.00;52297.25;5107877;28;19920;-73
2022/06/25 03:59:37;;;;;;;;;;;;;;;-144.99;100.00;52325.81;5102422;28;19972;-73
2022/06/25 04:02:04;;;;;;;;;;;;;;;-144.99;100.00;52293.19;5100318;28;19959;-74
2022/06/25 04:04:30;;;;;;;;;;;;;;;-144.99;100.00;52276.88;5108032;28;19927;-74
2022/06/25 04:06:57;;;;;;;;;;;;;;;-144.99;100.00;52266.69;5109968;28;19936;-73
2022/06/25 04:09:23;;;;;;;;;;;;;;;-144.99;100.00;52285.03;5106223;28;20338;-73
2022/06/25 04:11:51;;;;;;;;;;;;;;;-144.99;100.00;52276.88;5105472;28;20056;-74
2022/06/25 04:14:18;;;;;;;;;;;;;;;-144.99;100.00;52264.66;5108660;28;19924;-74
2022/06/25 04:16:44;;;;;;;;;;;;;;;-144.99;100.00;52305.41;5101192;28;19920;-74
2022/06/25 04:19:11;;;;;;;;;;;;;;;-144.99;100.00;52289.13;5096334;28;19923;-73
2022/06/25 04:21:37;;;;;;;;;;;;;;;-144.99;100.00;52307.47;5103296;28;19934;-73
2022/06/25 04:24:04;;;;;;;;;;;;;;;-144.99;100.00;52280.97;5099591;28;19927;-73
2022/06/25 04:26:30;;;;;;;;;;;;;;;-144.99;100.00;52256.50;5111194;28;19984;-75
2022/06/25 04:29:03;;;;;;;;;;;;;;;-144.99;100.00;52280.97;5110403;28;20011;-73
2022/06/25 04:31:30;;;;;;;;;;;;;;;-144.99;100.00;52301.34;5102566;28;19979;-72
2022/06/25 04:33:56;;;;;;;;;;;;;;;-144.99;100.00;52287.06;5103216;28;19923;-73
2022/06/25 04:36:23;;;;;;;;;;;;;;;-144.99;100.00;52293.19;5099538;28;19973;-73
2022/06/25 04:38:50;;;;;;;;;;;;;;;-144.99;100.00;52297.25;5113413;28;19980;-73
2022/06/25 04:41:16;;;;;;;;;;;;;;;-144.99;100.00;52276.88;5113394;28;20024;-73
2022/06/25 04:43:43;;;;;;;;;;;;;;;-144.99;100.00;52264.66;5104742;28;20303;-73
2022/06/25 04:46:11;;;;;;;;;;;;;;;-144.99;100.00;52305.41;5105315;28;20101;-73
2022/06/25 04:48:38;;;;;;;;;;;;;;;-144.99;100.00;52293.19;5111748;28;19920;-73
2022/06/25 04:51:04;;;;;;;;;;;;;;;-144.99;100.00;52270.78;5109008;28;19919;-73
2022/06/25 04:53:31;;;;;;;;;;;;;;;-144.99;100.00;52266.69;5107587;28;19924;-73
2022/06/25 04:55:57;;;;;;;;;;;;;;;-144.99;100.00;52266.69;5108057;28;19981;-74
2022/06/25 04:58:24;;;;;;;;;;;;;;;-144.99;100.00;52276.88;5106663;28;19923;-73
2022/06/25 05:00:51;;;;;;;;;;;;;;;-144.99;100.00;52307.47;5107666;28;19928;-73
2022/06/25 05:03:18;;;;;;;;;;;;;;;-144.99;100.00;52305.41;5107259;28;19919;-73
2022/06/25 05:05:45;;;;;;;;;;;;;;;-144.99;100.00;52268.72;5111420;28;20751;-73
2022/06/25 05:08:12;;;;;;;;;;;;;;;-144.99;100.00;52252.44;5104286;28;20382;-76
2022/06/25 05:10:38;;;;;;;;;;;;;;;-144.99;100.00;52280.97;5113164;28;19981;-76
2022/06/25 05:13:14;;;;;;;;;;;;;;;-144.99;100.00;52305.41;5112822;28;19979;-77
2022/06/25 05:15:41;;;;;;;;;;;;;;;-144.99;100.00;52276.88;5105043;28;19919;-76
2022/06/25 05:18:08;;;;;;;;;;;;;;;-144.99;100.00;52242.22;5100904;28;19919;-73
2022/06/25 05:20:38;;;;;;;;;;;;;;;-144.99;100.00;52256.50;5108454;28;19928;-72
2022/06/25 05:23:05;;;;;;;;;;;;;;;-144.99;100.00;52260.56;5098925;28;19928;-73
2022/06/25 05:25:31;;;;;;;;;;;;;;;-144.99;100.00;52293.19;5107260;28;19958;-74
2022/06/25 05:27:58;;;;;;;;;;;;;;;-144.99;100.00;52293.19;5104329;28;20386;-74
2022/06/25 05:30:24;;;;;;;;;;;;;;;-144.99;100.00;52278.91;5104064;28;19920;-74
2022/06/25 05:32:51;;;;;;;;;;;;;;;-144.99;100.00;52272.81;5098714;28;20019;-73
2022/06/25 05:35:17;;;;;;;;;;;;;;;-144.99;100.00;52264.66;5110448;28;19931;-73
2022/06/25 05:37:45;;;;;;;;;;;;;;;-144.99;100.00;52215.75;5102929;28;19928;-72
2022/06/25 05:40:12;;;;;;;;;;;;;;;-144.99;100.00;52264.66;5110050;28;19977;-72
2022/06/25 05:42:39;;;;;;;;;;;;;;;-144.99;100.00;52232.03;5107700;28;19919;-72
2022/06/25 05:45:06;;;;;;;;;;;;;;;-144.99;100.00;52280.97;5112855;28;19965;-72
2022/06/25 05:47:32;;;;;;;;;;;;;;;-144.99;100.00;52252.44;5109074;28;19973;-72
2022/06/25 05:49:59;;;;;;;;;;;;;;;-144.99;100.00;52287.06;5108286;28;19949;-72
2022/06/25 05:52:26;;;;;;;;;;;;;;;-144.99;100.00;52219.81;5099767;28;20104;-73
2022/06/25 05:54:54;;;;;;;;;;;;;;;-144.99;100.00;52280.97;5111886;28;19926;-72
2022/06/25 05:57:20;;;;;;;;;;;;;;;-144.99;100.00;52254.47;5109884;28;19961;-73
2022/06/25 05:59:47;;;;;;;;;;;;;;;-144.99;100.00;52289.13;5104892;28;19919;-73
2022/06/25 06:02:13;;;;;;;;;;;;;;;-144.99;100.00;52256.50;5109266;28;19919;-74
2022/06/25 06:04:40;;;;;;;;;;;;;;;-144.99;100.00;52244.28;5107443;28;19981;-73
2022/06/25 06:07:07;;;;;;;;;;;;;;;-144.99;100.00;52244.28;5099797;28;19946;-74
2022/06/25 06:09:33;;;;;;;;;;;;;;;-144.99;100.00;52248.34;5107970;28;19972;-74
2022/06/25 06:12:01;;;;;;;;;;;;;;;-144.99;100.00;52221.84;5106760;28;19919;-74
2022/06/25 06:14:28;;;;;;;;;;;;;;;-144.99;100.00;52227.97;5112598;28;19919;-75
2022/06/25 06:16:56;;;;;;;;;;;;;;;-144.99;100.00;52236.13;5112378;28;20198;-75
2022/06/25 06:19:22;;;;;;;;;;;;;;;-144.99;100.00;52256.50;5106880;28;20406;-75
2022/06/25 06:21:49;;;;;;;;;;;;;;;-144.99;100.00;52219.81;5107421;28;19923;-75
2022/06/25 06:24:15;;;;;;;;;;;;;;;-144.99;100.00;52236.13;5098063;28;19996;-76
2022/06/25 06:26:42;;;;;;;;;;;;;;;-144.99;100.00;52223.88;5108350;28;19931;-75
2022/06/25 06:29:10;;;;;;;;;;;;;;;-144.99;98.68;52211.66;5101668;28;19920;-75
2022/06/25 06:31:36;;;;;;;;;;;;;;;-144.99;97.79;52197.41;5109781;28;19955;-75
2022/06/25 06:34:03;;;;;;;;;;;;;;;-144.99;97.32;52223.88;5104998;28;19919;-76
2022/06/25 06:36:29;;;;;;;;;;;;;;;-144.99;96.97;52209.63;5110096;28;20081;-76
2022/06/25 06:38:56;;;;;;;;;;;;;;;-144.99;96.35;52227.97;5105977;28;20337;-76
2022/06/25 06:41:24;;;;;;;;;;;;;;;-144.99;94.24;52203.50;5111367;28;19980;-76
2022/06/25 06:43:51;;;;;;;;;;;;;;;-144.99;92.96;52189.25;5121053;28;19972;-77
2022/06/25 06:46:19;;;;;;;;;;;;;;;-144.99;90.30;52203.50;5105860;28;20340;-74
2022/06/25 06:48:45;;;;;;;;;;;;;;;-144.99;91.26;52217.78;5109854;28;19920;-74
2022/06/25 06:51:12;;;;;;;;;;;;;;;-144.99;90.56;52209.63;5106611;28;19923;-74
2022/06/25 06:53:38;;;;;;;;;;;;;;;-144.99;89.72;52230.00;5106239;28;19981;-75
2022/06/25 06:56:05;;;;;;;;;;;;;;;-144.99;89.66;52215.75;5106493;28;19927;-75
2022/06/25 06:58:31;;;;;;;;;;;;;;;-144.99;89.43;52203.50;5099474;28;19923;-73
2022/06/25 07:00:58;;;;;;;;;;;;;;;-144.99;86.56;52183.13;5110004;28;19962;-74
2022/06/25 07:03:26;;;;;;;;;;;;;;;-144.99;86.39;52195.34;5104576;28;19923;-74
2022/06/25 07:05:52;;;;;;;;;;;;;;;-144.99;84.29;52232.03;5102523;28;19924;-72
2022/06/25 07:08:19;;;;;;;;;;;;;;;-144.99;85.28;52183.13;5097401;28;20328;-73
2022/06/25 07:10:45;;;;;;;;;;;;;;;-144.99;85.80;52227.97;5103352;28;19965;-72
2022/06/25 07:13:12;;;;;;;;;;;;;;;-144.99;84.33;52203.50;5099365;28;19919;-73
2022/06/25 07:15:39;;;;;;;;;;;;;;;-144.99;83.89;52203.50;5106353;28;19920;-74
2022/06/25 07:18:06;;;;;;;;;;;;;;;-144.99;80.53;52211.66;5104145;28;19919;-73
2022/06/25 07:20:34;;;;;;;;;;;;;;;-144.99;82.69;52205.53;5106144;28;19932;-74
2022/06/25 07:23:00;;;;;;;;;;;;;;;-144.99;81.66;52162.75;5103070;28;19923;-73
2022/06/25 07:25:27;;;;;;;;;;;;;;;-144.99;80.13;52211.66;5115358;27;19959;-76
2022/06/25 07:27:53;;;;;;;;;;;;;;;-144.99;81.54;52191.28;5111466;28;19919;-73
2022/06/25 07:30:20;;;;;;;;;;;;;;;-144.99;80.71;52195.34;5108643;28;19972;-73
2022/06/25 07:32:46;;;;;;;;;;;;;;;-144.99;80.29;52164.78;5097819;28;20458;-73
2022/06/25 07:35:13;;;;;;;;;;;;;;;-144.99;80.99;52223.88;5105388;27;19919;-74
2022/06/25 07:37:42;;;;;;;;;;;;;;;-144.99;82.47;52199.44;5106705;28;20298;-73
2022/06/25 07:40:09;;;;;;;;;;;;;;;-144.99;81.22;52170.91;5099760;28;19923;-73
2022/06/25 07:42:36;;;;;;;;;;;;;;;-144.99;80.61;52217.78;5107815;28;19928;-73
2022/06/25 07:45:03;;;;;;;;;;;;;;;-144.99;78.93;52179.06;5115041;28;19934;-73
2022/06/25 07:47:35;;;;;;;;;;;;;;;-144.99;78.42;52148.47;5096421;28;20275;-73
2022/06/25 07:52:47;;;;;;;;;;;;;;;-144.99;80.02;52211.66;5108133;28;19934;-73
2022/06/25 07:55:14;;;;;;;;;;;;;;;-144.99;81.36;52197.41;5115821;28;20043;-73
2022/06/25 07:57:40;;;;;;;;;;;;;;;-144.99;81.60;52170.91;5109675;28;19920;-73
2022/06/25 08:00:09;;;;;;;;;;;;;;;-144.99;82.26;52209.63;5108651;28;19942;-73
2022/06/25 08:02:35;;;;;;;;;;;;;;;-144.99;80.18;52179.06;5106910;28;19924;-73
2022/06/25 08:05:02;;;;;;;;;;;;;;;-144.99;79.65;52185.16;5104305;28;20363;-73
2022/06/25 08:07:28;;;;;;;;;;;;;;;-144.99;78.93;52174.97;5110630;28;19973;-73
2022/06/25 08:09:56;;;;;;;;;;;;;;;-144.99;78.29;52172.94;5099945;28;20169;-73
2022/06/25 08:12:23;;;;;;;;;;;;;;;-144.99;78.29;52181.09;5097268;28;20002;-74
2022/06/25 08:14:49;;;;;;;;;;;;;;;-144.99;76.62;52170.91;5111207;28;19942;-73
2022/06/25 08:17:16;;;;;;;;;;;;;;;-144.99;73.04;52195.34;5110537;28;19968;-73
2022/06/25 08:19:42;;;;;;;;;;;;;;;-144.99;72.85;52170.91;5123167;27;20013;-73
2022/06/25 08:22:09;;;;;;;;;;;;;;;-144.99;72.83;52156.63;5133720;27;20393;-73
2022/06/25 08:24:35;;;;;;;;;;;;;;;-144.99;69.19;52162.75;5122596;27;20028;-73
2022/06/25 08:27:03;;;;;;;;;;;;;;;-144.99;67.34;52170.91;5106892;28;19955;-73
2022/06/25 08:29:30;;;;;;;;;;;;;;;-144.99;67.86;52162.75;5111831;27;19919;-73
2022/06/25 08:31:56;;;;;;;;;;;;;;;-144.99;67.28;52150.53;5123534;27;20056;-72
2022/06/25 08:34:23;;;;;;;;;;;;;;;-144.99;66.96;52115.88;5125230;27;19971;-73
2022/06/25 08:36:49;;;;;;;;;;;;;;;-144.99;65.91;52162.75;5115568;27;19930;-73
2022/06/25 08:39:16;;;;;;;;;;;;;;;-144.99;66.05;52154.59;5113981;28;20302;-72
2022/06/25 08:41:42;;;;;;;;;;;;;;;-144.99;66.20;52146.44;5115129;27;19927;-72
2022/06/25 08:44:10;;;;;;;;;;;;;;;-144.99;64.86;52170.91;5123312;27;19919;-72
2022/06/25 08:46:37;;;;;;;;;;;;;;;-144.99;65.78;52166.81;5129799;27;19981;-72
2022/06/25 08:49:03;;;;;;;;;;;;;;;-144.99;69.14;52199.44;5104347;27;24460;-75
2022/06/25 08:51:31;;;;;;;;;;;;;;;-144.99;67.52;52189.25;5113142;28;19924;-73
2022/06/25 08:53:58;;;;;;;;;;;;;;;-144.99;65.69;52146.44;5112090;28;20371;-73
2022/06/25 08:56:25;;;;;;;;;;;;;;;-144.99;63.95;52130.13;5120461;27;19931;-73
2022/06/25 08:58:51;;;;;;;;;;;;;;;-144.99;61.86;52181.09;5124558;27;20456;-73
2022/06/25 09:01:19;;;;;;;;;;;;;;;-144.99;61.30;52146.44;5108496;27;20375;-73
2022/06/25 09:03:46;;;;;;;;;;;;;;;-144.99;59.69;52134.22;5112512;28;20018;-73
2022/06/25 09:06:14;;;;;;;;;;;;;;;-144.99;59.01;52132.19;5133312;27;19992;-73
2022/06/25 09:08:41;;;;;;;;;;;;;;;-144.99;58.93;52138.28;5128590;27;19973;-72
2022/06/25 09:11:08;;;;;;;60.00;53.70;;;;;;;-144.99;59.78;52179.06;5110518;28;24449;-73
2022/06/25 09:13:35;;;;;;;;;;;;;;;-144.99;57.81;52109.75;5113358;27;20593;-73
2022/06/25 09:16:01;;;;;;;;;;;;;;;-144.99;55.95;52134.22;5133424;27;24448;-73
2022/06/25 09:18:33;;;;;;;;;;;;;;;-144.99;57.54;52170.91;5118841;27;20478;-75
2022/06/25 09:21:00;;;;;;;;;;;;;;;-144.99;56.65;52130.13;5110567;27;19949;-74
2022/06/25 09:23:27;;;;;;;;;;;;;;;-144.99;56.98;52113.84;5113494;27;19969;-73
2022/06/25 09:26:00;;;;;;;;;;;;;;;-144.99;55.13;52166.81;5112929;28;19958;-72
2022/06/25 09:28:29;;;;;;;;;;;;;;;-144.99;54.31;52105.69;5112443;28;19923;-73
2022/06/25 09:30:55;;;;;;;;;;;;;;;-144.99;54.23;52162.75;5109663;28;21445;-73
2022/06/25 09:33:22;;;;;;;;;;;;;;;-144.99;55.44;52130.13;5107937;28;19969;-73
2022/06/25 09:35:52;;;;;;;;;;;;;;;-144.99;54.32;52170.91;5104642;28;19932;-71
2022/06/25 09:38:19;;;;;;;;;;;;;;;-144.99;54.29;52130.13;5104149;28;19977;-73
2022/06/25 09:40:48;;;;;;;;;;;;;;;-144.99;54.44;52089.38;5109657;28;19987;-73
2022/06/25 09:43:15;;;;;;;;;;;;;;;-144.99;51.92;52077.16;5112799;28;19924;-73
2022/06/25 09:45:43;;;;;;;;;;;;;;;-144.99;50.18;52121.97;5110237;28;19947;-72
2022/06/25 09:48:10;;;;;;;;;;;;;;;-144.99;50.42;52146.44;5108826;28;19966;-74
2022/06/25 09:50:37;;;;;;;;;;;;;;;-144.99;49.13;52121.97;5103350;28;20402;-75
2022/06/25 09:53:05;;;;;;;;;;;;;;;-144.99;48.85;52146.44;5111715;28;19928;-75
2022/06/25 09:55:32;;;;;;;;;;;;;;;-144.99;49.33;52130.13;5107608;28;20006;-75
2022/06/25 09:58:00;;;;;;;;;;;;;;;-144.99;51.59;52138.28;5100544;28;19931;-73
2022/06/25 10:00:26;;;;;;;;;;;;;;;-144.99;50.39;52095.50;5099720;28;19931;-75
2022/06/25 10:02:54;;;;;;;;;;;;;;;-144.99;48.60;52117.91;5111513;28;19985;-73
2022/06/25 10:05:25;;;;;;;;;;;;;;;-144.99;47.84;52101.59;5109775;28;19928;-73
2022/06/25 10:08:01;;;;;;;;;;;;;;;-144.99;48.14;52079.19;5105594;28;19965;-73
2022/06/25 10:10:31;;;;;;;;;;;;;;;-144.99;47.58;52101.59;5110641;28;19998;-72
2022/06/25 10:12:58;;;;;;;;;;;;;;;-144.99;47.10;52089.38;5103572;28;19924;-74
2022/06/25 10:15:25;;;;;;;;;;;;;;;-144.99;47.74;52103.66;5121173;22;19939;-72
2022/06/25 10:17:53;;;;;;;;;;;;;;;-144.99;48.14;52089.38;5083736;28;19935;-72
2022/06/25 10:20:19;;;;;;;;;;;;;;;-144.99;48.67;52109.75;5080174;28;19924;-72
2022/06/25 10:22:47;;;;;;;;;;;;;;;-144.99;48.28;52097.53;5091040;28;20347;-74
2022/06/25 10:25:14;;;;;;;;;;;;;;;-144.99;47.28;52097.53;5081849;28;19924;-74
2022/06/25 10:27:43;;;;;;;;;;;;;;;-144.99;47.48;52111.78;5084420;28;19928;-74
2022/06/25 10:30:10;;;;;;;;;;;;;;;-144.99;45.43;52109.75;5081718;28;20337;-74
2022/06/25 10:32:42;;;;;;;;;;;;;;;-144.99;44.56;52048.63;5087626;28;19928;-74
2022/06/25 10:35:09;;;;;;;;;;;;;;;-144.99;43.97;52073.06;5086423;28;20006;-73
2022/06/25 10:37:50;;;;;;;;;;;;;;;-144.99;44.28;52069.00;5080271;28;19931;-74
2022/06/25 10:40:18;;;;;;;;;;;;;;;-144.99;45.00;52060.84;5072315;28;19967;-74
2022/06/25 10:43:01;;;;;;;;;;;;;;;-144.99;42.89;52040.47;5072978;28;20395;-74
2022/06/25 10:45:54;;;;;;;;;;;;;;;-144.99;42.60;51956.91;5081816;28;19928;-74
2022/06/25 10:48:23;;;;;;;;;;;;;;;-144.99;42.11;52003.78;5081527;28;19938;-75
2022/06/25 10:50:50;;;;;;;;;;;;;;;-144.99;43.24;52040.47;5077175;28;20011;-72
2022/06/25 10:53:17;;;;;;;;;;;;;;;-144.99;42.81;52028.22;5072751;28;24532;-73
2022/06/25 10:55:58;;;;;;;;;;;;;;;-144.99;40.59;52030.28;5083901;28;19924;-71
2022/06/25 10:58:27;;;;;;;;;;;;;;;-144.99;41.05;52048.63;5090433;28;20011;-73
2022/06/25 11:00:55;;;;;;;;;;;;;;;-144.99;40.58;52024.16;5086145;28;19924;-73
2022/06/25 11:03:36;;;;;;;;;;;;;;;-144.99;39.81;52020.09;5084454;28;20021;-73
2022/06/25 11:06:20;;;;;;;;;;;;;;;-144.99;39.17;52036.38;5084923;28;19977;-75
2022/06/25 11:08:46;;;;;;;;;;;;;;;-144.99;39.79;52069.00;5079338;28;20407;-75
2022/06/25 11:11:14;;;;;;;;;;;;;;;-144.99;40.06;52107.72;5077537;28;19924;-74
2022/06/25 11:13:42;;;;;;;;;;;;;;;-144.99;41.13;52069.00;5081299;28;19924;-73
2022/06/25 11:16:15;;;;;;;;;;;;;;;-144.99;41.00;52048.63;5077912;28;20117;-73
2022/06/25 11:18:49;;;;;;;;;;;;;;;-144.99;40.38;52030.28;5082891;28;19924;-73
2022/06/25 11:21:30;;;;;;;;;;;;;;;-144.99;39.83;51987.47;5084724;28;19924;-75
2022/06/25 11:24:10;;;;;;;;;;;;;;;-144.99;40.27;51999.69;5078926;28;19924;-74
2022/06/25 11:29:24;;;;;;;;;;;;;;;-144.99;40.07;52007.84;5083063;28;19940;-75
2022/06/25 11:31:51;;;;;;;;;;;;;;;-144.99;40.64;52026.19;5073195;28;19936;-74
2022/06/25 11:34:19;;;;;;;;;;;;;;;-144.99;40.43;52036.38;5081262;28;19966;-74
2022/06/25 11:36:46;;;;;;;;;;;;;;;-144.99;41.48;52093.44;5086729;28;21182;-73
2022/06/25 11:39:14;;;;;;;;;;;;;;;-144.99;41.04;52042.50;5082909;28;24456;-73
2022/06/25 11:41:41;;;;;;;;;;;;;;;-144.99;40.63;52056.78;5088120;28;20808;-72
2022/06/25 11:44:08;;;;;;;;;;;;;;;-144.99;40.69;52028.22;5095343;28;20649;-72
2022/06/25 11:46:36;;;;;;;;;;;;;;;-144.99;39.30;52020.09;5093935;28;24442;-72
2022/06/25 11:49:04;;;;;;;;;;;;;;;-144.99;39.21;51973.22;5095713;28;21039;-74
2022/06/25 11:51:31;;;;;;;62.30;56.05;;;;;;;-144.99;40.07;52024.16;5101052;28;24465;-72
2022/06/25 11:53:58;;;;;;;;;;;;;;;-144.99;39.47;52024.16;5104159;28;20216;-75
2022/06/25 11:56:27;;;;;;;;;;;;;;;-144.99;39.92;52060.84;5104375;28;20334;-73
2022/06/25 11:58:53;;;;;;;;;;;;;;;-144.99;40.58;52056.78;5099360;28;19994;-74
2022/06/25 12:01:27;;;;;;;;;;;;;;;-144.99;40.22;52064.91;5104540;28;19924;-73
2022/06/25 12:03:55;;;;;;;;;;;;;;;-144.99;38.85;52077.16;5101005;28;20378;-74
2022/06/25 12:06:22;;;;;;;;;;;;;;;-144.99;40.12;52044.53;5101556;28;19930;-72
2022/06/25 12:08:49;;;;;;;;;;;;;;;-144.99;39.75;52052.69;5090438;28;19920;-73
2022/06/25 12:11:16;;;;;;;;;;;;;;;-144.99;39.93;52083.25;5094381;28;19950;-75
2022/06/25 12:13:42;;;;;;;;;;;;;;;-144.99;41.91;52046.56;5084541;28;20067;-73
2022/06/25 12:16:09;;;;;;;;;;;;;;;-144.99;41.82;52007.84;5098715;28;19919;-73
2022/06/25 12:18:37;;;;;;;;;;;;;;;-144.99;40.66;52093.44;5097915;28;20424;-74
2022/06/25 12:21:05;;;;;;;;;;;;;;;-144.99;41.04;52064.91;5095851;28;19920;-74
2022/06/25 12:23:47;;;;;;;;;;;;;;;-144.99;40.76;52028.22;5106476;28;19924;-72
2022/06/25 12:26:23;;;;;;;;;;;;;;;-144.99;40.65;52040.47;5096615;28;20390;-73
2022/06/25 12:28:49;;;;;;;;;;;;;;;-144.99;40.21;52020.09;5092736;28;19923;-73
2022/06/25 12:31:17;;;;;;;53.88;49.10;;;;;;;-144.99;38.54;52018.03;5092501;28;19924;-73